WetterOnline ( http://www.wetteronline.de )

Wetter aktuell Winterberg

Aktuelles Wetter: Kahler Asten (841m)

6-stündlich | Neueste Meldungen
Ortszeit Temperatur Wetter
Mo, 18.02. 13:00 10.3° C wolkenlos
Mo, 18.02. 7:00 6.8° C wolkenlos
Mo, 18.02. 1:00 6.8° C wolkig
So, 17.02. 19:00 6.3° C wolkig
So, 17.02. 13:00 8.5° C wolkig
So, 17.02. 7:00 5.9° C bedeckt
So, 17.02. 1:00 7.9° C wolkig
Sa, 16.02. 19:00 7.9° C leicht bewölkt
Ortszeit Temperatur Wetter
Mo, 18.02. 16:30 9.3° C bedeckt
Mo, 18.02. 16:20 9.3° C bedeckt
Mo, 18.02. 16:10 9.4° C wolkig
Mo, 18.02. 16:00 10.2° C leicht bewölkt
Mo, 18.02. 15:50 10.2° C fast wolkenlos
Mo, 18.02. 15:40 10.2° C fast wolkenlos
Mo, 18.02. 15:30 10.4° C fast wolkenlos
Mo, 18.02. 15:00 10.7° C wolkenlos
Mo, 18.02. 14:30 10.7° C wolkenlos
Mo, 18.02. 14:00 10.8° C wolkenlos
Mo, 18.02. 13:30 10.3° C wolkenlos
Ortszeit Relative Feuchte Sichtweite
Mo, 18.02. 13:00 33% 21 km
Mo, 18.02. 7:00 41% 60 km
Mo, 18.02. 1:00 45% 55 km
So, 17.02. 19:00 57% 27 km
So, 17.02. 13:00 45% 16 km
So, 17.02. 7:00 54% 24 km
So, 17.02. 1:00 43% 35 km
Sa, 16.02. 19:00 42% 55 km
Ortszeit Relative Feuchte Sichtweite
Mo, 18.02. 16:30 48% 30 km
Mo, 18.02. 16:20 48% -
Mo, 18.02. 16:10 47% -
Mo, 18.02. 16:00 43% 30 km
Mo, 18.02. 15:50 43% -
Mo, 18.02. 15:40 43% -
Mo, 18.02. 15:30 42% 28 km
Mo, 18.02. 15:00 37% 25 km
Mo, 18.02. 14:30 30% 26 km
Mo, 18.02. 14:00 31% 22 km
Mo, 18.02. 13:30 35% 26 km
Ortszeit Niederschlagsmenge Niederschlagsart
Mo, 18.02. 13:00 0.0 l/m2 in 6 Std. -
Mo, 18.02. 7:00 0.0 l/m2 in 12 Std. -
Mo, 18.02. 1:00 0.0 l/m2 in 6 Std. -
So, 17.02. 19:00 0.0 l/m2 in 12 Std. -
So, 17.02. 13:00 0.0 l/m2 in 6 Std. -
So, 17.02. 7:00 0.0 l/m2 in 12 Std. -
So, 17.02. 1:00 0.0 l/m2 in 6 Std. -
Sa, 16.02. 19:00 0.0 l/m2 in 12 Std. -
Ortszeit Niederschlagsmenge Niederschlagsart
Mo, 18.02. 16:30 0.0 l/m2 in 1 Std. -
Mo, 18.02. 16:20 keine Meldung -
Mo, 18.02. 16:10 keine Meldung -
Mo, 18.02. 16:00 0.0 l/m2 in 1 Std. -
Mo, 18.02. 15:50 keine Meldung -
Mo, 18.02. 15:40 keine Meldung -
Mo, 18.02. 15:30 0.0 l/m2 in 1 Std. -
Mo, 18.02. 15:00 0.0 l/m2 in 1 Std. -
Mo, 18.02. 14:30 0.0 l/m2 in 1 Std. -
Mo, 18.02. 14:00 0.0 l/m2 in 1 Std. -
Mo, 18.02. 13:30 0.0 l/m2 in 1 Std. -
Ortszeit Stärke Spitze Richtung
km/h Bft. km/h Grad Sektor
Mo, 18.02. 13:00 22 4 32 200° S
Mo, 18.02. 7:00 20 4 33 240° SW
Mo, 18.02. 1:00 24 4 43 250° W
So, 17.02. 19:00 24 4 33 210° SW
So, 17.02. 13:00 26 4 39 210° SW
So, 17.02. 7:00 24 4 30 210° SW
So, 17.02. 1:00 14 3 29 230° SW
Sa, 16.02. 19:00 22 4 33 240° SW
Ortszeit Stärke Spitze Richtung
km/h Bft. km/h Grad Sektor
Mo, 18.02. 16:30 14 3 25 170° S
Mo, 18.02. 16:20 14 3 - 170° S
Mo, 18.02. 16:10 14 3 - 170° S
Mo, 18.02. 16:00 17 3 28 190° S
Mo, 18.02. 15:50 17 3 - 190° S
Mo, 18.02. 15:40 17 3 - 190° S
Mo, 18.02. 15:30 20 4 28 200° S
Mo, 18.02. 15:00 19 3 30 200° S
Mo, 18.02. 14:30 22 4 29 200° S
Mo, 18.02. 14:00 18 3 29 190° S
Mo, 18.02. 13:30 20 4 30 210° SW
Ortszeit Untergrenze Bedeckung Gattung
total tief tief mittel hoch
Mo, 18.02. 13:00 - 0/8 0/8 - - -
Mo, 18.02. 7:00 - 0/8 0/8 - - -
Mo, 18.02. 1:00 10500 m 8/8 0/8 - - -
So, 17.02. 19:00 8700 m 8/8 0/8 - - -
So, 17.02. 13:00 6600 m 7/8 7/8 - - -
So, 17.02. 7:00 5700 m 8/8 8/8 - - -
So, 17.02. 1:00 9000 m 8/8 0/8 - - -
Sa, 16.02. 19:00 10500 m 4/8 0/8 - - -
Ortszeit Bedeckungsgrad in Achtel und Wolkenuntergrenze
Mo, 18.02. 16:30 8(6000m)
Mo, 18.02. 16:20 8(6000m)
Mo, 18.02. 16:10 6(6000m)
Mo, 18.02. 16:00 1(5700m) 4(6600m)
Mo, 18.02. 15:50 1(5700m)
Mo, 18.02. 15:40 1(7200m)
Mo, 18.02. 15:30 2(7200m)
Mo, 18.02. 15:00 keine Wolken
Mo, 18.02. 14:30 keine Wolken
Mo, 18.02. 14:00 keine Wolken
Mo, 18.02. 13:30 keine Wolken
Ortszeit Stationsdruck (hPa) Tendenz (hPa in 3 Std.)
Mo, 18.02. 13:00 919 - 0,9
Mo, 18.02. 7:00 920 - 0,4
Mo, 18.02. 1:00 921 - 0,3
So, 17.02. 19:00 922 - 0,1
So, 17.02. 13:00 923 - 0,8
So, 17.02. 7:00 923 - 0,8
So, 17.02. 1:00 925 - 0,3
Sa, 16.02. 19:00 926 - 0,2
Ortszeit Stationsdruck (hPa) Tendenz (hPa in 3 Std.)
Mo, 18.02. 16:30 917 - 1,5
Mo, 18.02. 16:20 917 keine Meldung
Mo, 18.02. 16:10 918 keine Meldung
Mo, 18.02. 16:00 918 - 1,4
Mo, 18.02. 15:50 918 keine Meldung
Mo, 18.02. 15:40 918 keine Meldung
Mo, 18.02. 15:30 918 - 1,5
Mo, 18.02. 15:00 918 - 1,6
Mo, 18.02. 14:30 918 - 1,7
Mo, 18.02. 14:00 919 - 1,4
Mo, 18.02. 13:30 919 - 1,2
Ortszeit Schneehöhe (cm)
Mo, 18.02. 13:00 30
Mo, 18.02. 7:00 30
Mo, 18.02. 1:00 30
So, 17.02. 19:00 30
So, 17.02. 13:00 32
So, 17.02. 7:00 32
So, 17.02. 1:00 32
Sa, 16.02. 19:00 32
Ortszeit Schneehöhe (cm)
Mo, 18.02. 16:30 29
Mo, 18.02. 16:20 29
Mo, 18.02. 16:10 29
Mo, 18.02. 16:00 29
Mo, 18.02. 15:50 29
Mo, 18.02. 15:40 29
Mo, 18.02. 15:30 29
Mo, 18.02. 15:00 30
Mo, 18.02. 14:30 30
Mo, 18.02. 14:00 30
Mo, 18.02. 13:30 30
Link zu dieser Seite / Seite empfehlen

Das Wetter in ...